createdAt,value
2018-08-04T00:00:09.490Z,10.53
2018-08-04T00:02:38.945Z,10.57
2018-08-04T00:05:09.030Z,10.17
2018-08-04T00:07:38.050Z,11.60
2018-08-04T00:10:13.559Z,10.97
2018-08-04T00:12:42.438Z,10.30
2018-08-04T00:15:18.143Z,10.60
2018-08-04T00:17:48.156Z,10.80
2018-08-04T00:20:17.439Z,10.47
2018-08-04T00:22:46.806Z,10.50
2018-08-04T00:25:15.853Z,10.53
2018-08-04T00:27:44.856Z,10.17
2018-08-04T00:30:15.218Z,11.30
2018-08-04T00:32:45.111Z,10.97
2018-08-04T00:35:14.025Z,10.83
2018-08-04T00:37:42.986Z,10.90
2018-08-04T00:40:13.994Z,10.20
2018-08-04T00:42:43.784Z,11.37
2018-08-04T00:45:12.318Z,12.60
2018-08-04T00:47:42.053Z,12.47
2018-08-04T00:50:11.591Z,11.40
2018-08-04T00:52:40.083Z,11.73
2018-08-04T00:55:09.044Z,15.47
2018-08-04T00:57:37.996Z,13.13
2018-08-04T01:00:07.786Z,11.83
2018-08-04T01:02:37.644Z,12.10
2018-08-04T01:05:07.058Z,11.30
2018-08-04T01:07:35.924Z,13.43
2018-08-04T01:10:06.181Z,20.60
2018-08-04T01:12:34.717Z,12.87
2018-08-04T01:15:03.772Z,11.20
2018-08-04T01:17:32.756Z,12.57
2018-08-04T01:20:06.562Z,14.00
2018-08-04T01:22:36.489Z,14.87
2018-08-04T01:25:06.650Z,13.90
2018-08-04T01:27:35.544Z,11.87
2018-08-04T01:30:05.199Z,12.60
2018-08-04T01:32:34.162Z,12.43
2018-08-04T01:35:03.218Z,12.80
2018-08-04T01:37:32.918Z,12.53
2018-08-04T01:40:02.466Z,11.67
2018-08-04T01:42:32.248Z,12.60
2018-08-04T01:45:01.213Z,12.53
2018-08-04T01:47:30.652Z,13.73
2018-08-04T01:49:59.513Z,12.80
2018-08-04T01:52:28.422Z,14.10
2018-08-04T01:54:57.350Z,14.13
2018-08-04T01:57:26.256Z,13.13
2018-08-04T01:59:54.753Z,14.20
2018-08-04T02:02:23.737Z,13.83
2018-08-04T02:04:52.251Z,13.87
2018-08-04T02:07:21.190Z,13.83
2018-08-04T02:09:49.781Z,13.70
2018-08-04T02:12:18.238Z,11.13
2018-08-04T02:14:47.829Z,12.17
2018-08-04T02:17:16.693Z,11.37
2018-08-04T02:19:45.640Z,11.73
2018-08-04T02:22:14.527Z,11.37
2018-08-04T02:24:43.460Z,11.17
2018-08-04T02:27:12.330Z,11.73
2018-08-04T02:29:40.791Z,12.33
2018-08-04T02:32:09.766Z,12.07
2018-08-04T02:34:39.046Z,11.43
2018-08-04T02:37:07.999Z,11.47
2018-08-04T02:39:36.908Z,11.70
2018-08-04T02:42:06.570Z,11.40
2018-08-04T02:44:35.528Z,11.37
2018-08-04T02:47:04.445Z,11.40
2018-08-04T02:49:33.385Z,11.13
2018-08-04T02:52:02.848Z,11.50
2018-08-04T02:54:32.394Z,11.00
2018-08-04T02:57:01.762Z,12.40
2018-08-04T02:59:30.400Z,11.50
2018-08-04T03:01:59.361Z,12.57
2018-08-04T03:04:28.262Z,12.27
2018-08-04T03:06:57.215Z,11.97
2018-08-04T03:09:26.815Z,12.77
2018-08-04T03:11:55.721Z,11.83
2018-08-04T03:14:24.223Z,12.63
2018-08-04T03:16:53.120Z,12.20
2018-08-04T03:19:22.376Z,12.57
2018-08-04T03:21:51.322Z,12.07
2018-08-04T03:24:20.459Z,12.27
2018-08-04T03:26:49.333Z,11.70
2018-08-04T03:29:18.254Z,12.47
2018-08-04T03:31:47.510Z,12.00
2018-08-04T03:34:17.241Z,12.03
2018-08-04T03:36:46.912Z,12.30
2018-08-04T03:39:15.812Z,12.37
2018-08-04T03:41:44.727Z,12.83
2018-08-04T03:44:13.685Z,13.83
2018-08-04T03:46:43.779Z,14.97
2018-08-04T03:49:12.704Z,13.37
2018-08-04T03:51:41.643Z,13.43
2018-08-04T03:54:10.586Z,14.50
2018-08-04T03:56:39.491Z,13.47
2018-08-04T03:59:08.951Z,12.90
2018-08-04T04:01:37.875Z,12.93
2018-08-04T04:04:06.764Z,13.00
2018-08-04T04:06:36.692Z,13.60
2018-08-04T04:09:08.268Z,13.63
2018-08-04T04:11:37.893Z,12.53
2018-08-04T04:14:06.422Z,12.73
2018-08-04T04:16:36.329Z,12.07
2018-08-04T04:19:05.259Z,11.73
2018-08-04T04:21:34.990Z,12.77
2018-08-04T04:24:03.523Z,12.60
2018-08-04T04:26:32.455Z,11.87
2018-08-04T04:29:01.544Z,12.67
2018-08-04T04:31:30.607Z,12.43
2018-08-04T04:33:59.577Z,12.20
2018-08-04T04:36:28.957Z,12.57
2018-08-04T04:38:57.937Z,12.53
2018-08-04T04:41:26.431Z,11.37
2018-08-04T04:43:55.321Z,13.80
2018-08-04T04:46:24.257Z,12.97
2018-08-04T04:48:53.228Z,14.00
2018-08-04T04:51:22.126Z,13.57
2018-08-04T04:53:51.028Z,12.77
2018-08-04T04:56:19.961Z,12.63
2018-08-04T04:58:48.489Z,12.50
2018-08-04T05:01:17.372Z,12.27
2018-08-04T05:03:47.441Z,12.13
2018-08-04T05:06:16.356Z,13.47
2018-08-04T05:08:45.301Z,13.73
2018-08-04T05:11:14.457Z,14.87
2018-08-04T05:13:43.975Z,16.63
2018-08-04T05:16:12.917Z,15.40
2018-08-04T05:18:41.877Z,24.00
2018-08-04T05:21:11.779Z,26.30
2018-08-04T05:23:40.718Z,19.47
2018-08-04T05:26:09.659Z,17.67
2018-08-04T05:28:38.608Z,16.57
2018-08-04T05:31:07.603Z,17.47
2018-08-04T05:33:37.415Z,17.43
2018-08-04T05:36:06.957Z,17.80
2018-08-04T05:38:36.561Z,17.40
2018-08-04T05:41:06.305Z,17.63
2018-08-04T05:43:35.611Z,17.03
2018-08-04T05:46:04.152Z,17.33
2018-08-04T05:48:33.107Z,15.63
2018-08-04T05:51:02.029Z,16.13
2018-08-04T05:53:30.925Z,15.53
2018-08-04T05:56:00.836Z,29.10
2018-08-04T05:58:29.736Z,25.17
2018-08-04T06:00:58.674Z,17.37
2018-08-04T06:03:27.208Z,16.40
2018-08-04T06:05:56.147Z,16.60
2018-08-04T06:08:25.404Z,14.77
2018-08-04T06:10:55.322Z,16.27
2018-08-04T06:13:24.235Z,15.80
2018-08-04T06:15:53.170Z,14.43
2018-08-04T06:18:22.056Z,14.80
2018-08-04T06:20:50.920Z,14.53
2018-08-04T06:23:19.444Z,15.53
2018-08-04T06:25:48.377Z,15.07
2018-08-04T06:28:17.872Z,13.93
2018-08-04T06:30:47.530Z,15.67
2018-08-04T06:33:17.423Z,15.50
2018-08-04T06:35:45.920Z,14.53
2018-08-04T06:38:14.818Z,15.10
2018-08-04T06:40:43.713Z,14.43
2018-08-04T06:43:12.706Z,15.33
2018-08-04T06:45:42.079Z,14.70
2018-08-04T06:48:11.988Z,15.23
2018-08-04T06:50:41.568Z,15.17
2018-08-04T06:53:10.840Z,15.13
2018-08-04T06:55:39.782Z,15.57
2018-08-04T06:58:09.028Z,15.70
2018-08-04T07:00:39.033Z,13.73
2018-08-04T07:03:08.556Z,14.40
2018-08-04T07:05:37.513Z,15.83
